Terminal Aerodrome Forecast
Issued by NWS Charleston, WV

Current Version | Previous Version | Graphics & Text | Print | Product List | Glossary On
Versions: 1 2 3 4 5 6 7 8 9 10 11 12 13 14 15 16 17 18 19 20 21 22 23
000
FTUS41 KRLX 290900 CCA
TAFPKB
TAF COR
KPKB 290946Z 2909/3006 00000KT 2SM BR BKN002
     FM291300 00000KT 6SM BR SCT002 BKN200
     FM291400 00000KT P6SM SCT060
     FM300500 00000KT 6SM BR FEW050=

USA.gov is the U.S. government's official web portal to all federal, state and local government web resources and services.